createdAt,value
2018-08-20T00:01:44.108Z,21.40
2018-08-20T00:04:12.751Z,21.30
2018-08-20T00:06:53.899Z,21.30
2018-08-20T00:09:31.993Z,21.30
2018-08-20T00:12:00.613Z,21.30
2018-08-20T00:14:29.163Z,21.30
2018-08-20T00:16:57.944Z,21.20
2018-08-20T00:19:26.524Z,21.20
2018-08-20T00:21:55.115Z,21.20
2018-08-20T00:24:23.687Z,21.10
2018-08-20T00:26:52.348Z,21.20
2018-08-20T00:29:20.881Z,21.10
2018-08-20T00:31:51.248Z,21.10
2018-08-20T00:34:20.029Z,21.10
2018-08-20T00:36:49.466Z,21.00
2018-08-20T00:39:18.189Z,21.00
2018-08-20T00:41:47.131Z,21.00
2018-08-20T00:44:16.936Z,21.00
2018-08-20T00:46:46.194Z,21.00
2018-08-20T00:49:16.048Z,21.00
2018-08-20T00:51:44.799Z,21.00
2018-08-20T00:54:13.377Z,20.90
2018-08-20T00:56:41.918Z,20.90
2018-08-20T00:59:10.421Z,20.80
2018-08-20T01:01:39.120Z,20.80
2018-08-20T01:04:07.846Z,20.80
2018-08-20T01:06:36.462Z,20.80
2018-08-20T01:09:06.336Z,20.70
2018-08-20T01:11:34.923Z,20.70
2018-08-20T01:14:03.711Z,20.70
2018-08-20T01:16:32.296Z,20.60
2018-08-20T01:19:03.425Z,20.60
2018-08-20T01:21:31.951Z,20.60
2018-08-20T01:24:00.578Z,20.50
2018-08-20T01:26:29.135Z,20.50
2018-08-20T01:28:57.839Z,20.40
2018-08-20T01:31:26.411Z,20.40
2018-08-20T01:33:55.006Z,20.30
2018-08-20T01:36:23.610Z,20.30
2018-08-20T01:38:52.133Z,20.20
2018-08-20T01:41:21.153Z,20.20
2018-08-20T01:43:49.711Z,20.10
2018-08-20T01:46:18.272Z,20.00
2018-08-20T01:48:46.855Z,20.00
2018-08-20T01:51:15.477Z,19.90
2018-08-20T01:53:44.143Z,19.80
2018-08-20T01:56:12.743Z,19.70
2018-08-20T01:58:41.343Z,19.70
2018-08-20T02:01:10.229Z,19.60
2018-08-20T02:03:38.898Z,19.60
2018-08-20T02:06:07.647Z,19.50
2018-08-20T02:08:36.288Z,19.40
2018-08-20T02:11:04.957Z,19.40
2018-08-20T02:13:33.521Z,19.40
2018-08-20T02:16:03.516Z,19.20
2018-08-20T02:18:32.651Z,19.20
2018-08-20T02:21:02.035Z,19.20
2018-08-20T02:23:30.603Z,19.20
2018-08-20T02:25:59.147Z,19.10
2018-08-20T02:28:27.695Z,19.10
2018-08-20T02:30:56.307Z,19.10
2018-08-20T02:33:24.905Z,19.00
2018-08-20T02:35:53.539Z,19.00
2018-08-20T02:38:22.148Z,19.00
2018-08-20T02:40:50.719Z,18.90
2018-08-20T02:43:19.327Z,18.90
2018-08-20T02:45:47.867Z,18.90
2018-08-20T02:48:16.502Z,18.90
2018-08-20T02:50:45.040Z,18.80
2018-08-20T02:53:13.663Z,18.70
2018-08-20T02:55:42.290Z,18.70
2018-08-20T02:58:10.897Z,18.70
2018-08-20T03:00:39.449Z,18.60
2018-08-20T03:03:08.032Z,18.60
2018-08-20T03:05:36.567Z,18.60
2018-08-20T03:08:05.231Z,18.50
2018-08-20T03:10:33.730Z,18.50
2018-08-20T03:13:06.259Z,18.50
2018-08-20T03:15:34.869Z,18.60
2018-08-20T03:18:03.555Z,18.50
2018-08-20T03:20:32.127Z,18.50
2018-08-20T03:23:02.859Z,18.40
2018-08-20T03:25:31.426Z,18.40
2018-08-20T03:28:00.018Z,18.40
2018-08-20T03:30:28.720Z,18.40
2018-08-20T03:32:57.286Z,18.30
2018-08-20T03:35:25.868Z,18.30
2018-08-20T03:37:54.494Z,18.30
2018-08-20T03:40:23.152Z,18.30
2018-08-20T03:42:51.768Z,18.20
2018-08-20T03:45:20.394Z,18.20
2018-08-20T03:47:48.936Z,18.20
2018-08-20T03:50:17.667Z,18.20
2018-08-20T03:52:46.237Z,18.20
2018-08-20T03:55:14.895Z,18.20
2018-08-20T03:57:43.588Z,18.20
2018-08-20T04:00:12.659Z,18.20
2018-08-20T04:02:41.226Z,18.20
2018-08-20T04:05:09.908Z,18.20
2018-08-20T04:07:38.395Z,18.20
2018-08-20T04:10:06.975Z,18.20
2018-08-20T04:12:35.563Z,18.20
2018-08-20T04:15:04.216Z,18.20
2018-08-20T04:17:32.743Z,18.20
2018-08-20T04:20:01.355Z,18.10
2018-08-20T04:22:30.017Z,18.10
2018-08-20T04:24:58.600Z,18.10
2018-08-20T04:27:27.284Z,18.10
2018-08-20T04:29:55.965Z,18.00
2018-08-20T04:32:24.595Z,18.00
2018-08-20T04:34:53.224Z,18.00
2018-08-20T04:37:21.886Z,18.00
2018-08-20T04:39:50.425Z,18.10
2018-08-20T04:42:19.158Z,18.10
2018-08-20T04:44:47.713Z,18.10
2018-08-20T04:47:16.323Z,18.10
2018-08-20T04:49:44.864Z,18.10
2018-08-20T04:52:13.575Z,18.20
2018-08-20T04:54:42.252Z,18.20
2018-08-20T04:57:10.949Z,18.20
2018-08-20T04:59:39.515Z,18.30
2018-08-20T05:02:08.191Z,18.30
2018-08-20T05:04:36.731Z,18.30
2018-08-20T05:07:05.540Z,18.40
2018-08-20T05:09:34.183Z,18.40
2018-08-20T05:12:07.599Z,18.50
2018-08-20T05:14:36.239Z,18.60
2018-08-20T05:17:04.875Z,18.60
2018-08-20T05:19:33.475Z,18.70
2018-08-20T05:22:02.143Z,18.70
2018-08-20T05:24:30.759Z,18.80
2018-08-20T05:26:59.395Z,18.80
2018-08-20T05:29:28.048Z,18.90
2018-08-20T05:31:56.602Z,18.90
2018-08-20T05:34:25.267Z,18.90
2018-08-20T05:36:53.975Z,19.00
2018-08-20T05:39:22.621Z,19.00
2018-08-20T05:41:51.124Z,19.10
2018-08-20T05:44:19.899Z,19.20
2018-08-20T05:46:48.490Z,19.30
2018-08-20T05:49:17.131Z,19.40
2018-08-20T05:51:45.822Z,19.40
2018-08-20T05:54:14.444Z,19.50
2018-08-20T05:56:43.140Z,19.60
2018-08-20T05:59:11.900Z,19.60
2018-08-20T06:01:40.537Z,19.70
2018-08-20T06:04:09.339Z,19.80
2018-08-20T06:06:37.973Z,19.90
2018-08-20T06:09:08.136Z,20.00
2018-08-20T06:11:36.841Z,20.10
2018-08-20T06:14:05.675Z,20.20
2018-08-20T06:16:34.515Z,20.30
2018-08-20T06:19:03.261Z,20.40
2018-08-20T06:21:32.639Z,20.40
2018-08-20T06:24:01.337Z,20.60
2018-08-20T06:26:29.956Z,20.60
2018-08-20T06:28:58.664Z,20.70
2018-08-20T06:31:27.495Z,20.80
2018-08-20T06:33:56.148Z,21.00
2018-08-20T06:36:24.805Z,21.10
2018-08-20T06:38:53.459Z,21.10
2018-08-20T06:41:22.137Z,21.20
2018-08-20T06:43:50.753Z,21.40
2018-08-20T06:46:19.428Z,21.50
2018-08-20T06:48:48.187Z,21.60
2018-08-20T06:51:16.822Z,21.80
2018-08-20T06:53:45.469Z,21.90
2018-08-20T06:56:14.105Z,22.10
2018-08-20T06:58:42.752Z,22.20
2018-08-20T07:01:11.501Z,22.40
2018-08-20T07:03:40.171Z,22.60
2018-08-20T07:06:08.899Z,22.70
2018-08-20T07:08:37.591Z,22.90
2018-08-20T07:11:06.259Z,23.10
2018-08-20T07:13:36.802Z,23.20
2018-08-20T07:16:06.741Z,23.40
2018-08-20T07:18:35.511Z,23.60
2018-08-20T07:21:04.347Z,23.80
2018-08-20T07:23:33.138Z,24.00
2018-08-20T07:26:01.677Z,24.10
2018-08-20T07:28:30.373Z,24.30
2018-08-20T07:30:58.978Z,24.40
2018-08-20T07:33:27.786Z,24.50
2018-08-20T07:35:56.603Z,24.70
2018-08-20T07:38:26.863Z,24.80
2018-08-20T07:40:55.530Z,25.00
2018-08-20T07:43:24.270Z,25.10
2018-08-20T07:45:53.239Z,25.30
2018-08-20T07:48:21.873Z,25.40
2018-08-20T07:50:50.410Z,25.50
2018-08-20T07:53:19.718Z,25.70
2018-08-20T07:55:48.215Z,25.90
2018-08-20T07:58:16.793Z,26.00
2018-08-20T08:00:45.367Z,26.20
2018-08-20T08:03:13.975Z,26.30
2018-08-20T08:05:42.541Z,26.50
2018-08-20T08:08:11.013Z,26.60
2018-08-20T08:10:39.547Z,26.90
2018-08-20T08:13:07.985Z,27.00
2018-08-20T08:15:36.484Z,27.10
2018-08-20T08:18:05.319Z,27.20
2018-08-20T08:20:33.897Z,27.30
2018-08-20T08:23:02.409Z,27.40
2018-08-20T08:25:30.921Z,27.50
2018-08-20T08:27:59.418Z,27.70
2018-08-20T08:30:27.979Z,27.80
2018-08-20T08:32:56.466Z,28.00
2018-08-20T08:35:24.979Z,28.10
2018-08-20T08:37:53.645Z,28.20
2018-08-20T08:40:22.209Z,28.30
2018-08-20T08:42:50.699Z,28.40
2018-08-20T08:45:19.430Z,28.60
2018-08-20T08:47:47.934Z,28.70
2018-08-20T08:50:17.299Z,28.80
2018-08-20T08:52:46.197Z,29.00
2018-08-20T08:55:14.762Z,29.10
2018-08-20T08:57:43.358Z,29.30
2018-08-20T09:00:19.974Z,29.50
2018-08-20T09:02:48.499Z,29.60
2018-08-20T09:05:17.147Z,29.80
2018-08-20T09:07:45.658Z,29.90
2018-08-20T09:10:14.201Z,30.10
2018-08-20T09:12:42.820Z,30.30
2018-08-20T09:15:14.205Z,30.50
2018-08-20T09:17:43.116Z,30.60
2018-08-20T09:20:13.805Z,30.80
2018-08-20T09:22:42.331Z,30.90
2018-08-20T09:25:11.804Z,31.00
2018-08-20T09:27:40.828Z,31.10
2018-08-20T09:30:16.923Z,31.20
2018-08-20T09:32:46.426Z,31.40
2018-08-20T09:35:14.891Z,31.60
2018-08-20T09:37:43.457Z,31.60
2018-08-20T09:40:12.632Z,31.80
2018-08-20T09:42:41.752Z,31.90
2018-08-20T09:45:10.629Z,32.00
2018-08-20T09:47:40.140Z,32.20
2018-08-20T09:50:11.433Z,32.40
2018-08-20T09:52:39.951Z,32.50
2018-08-20T09:55:09.231Z,32.60
2018-08-20T09:57:37.926Z,32.80
2018-08-20T10:00:09.647Z,33.00
2018-08-20T10:02:38.206Z,33.00
2018-08-20T10:05:06.860Z,33.20
2018-08-20T10:07:35.395Z,33.30
2018-08-20T10:10:04.304Z,33.50
2018-08-20T10:12:32.832Z,33.60
2018-08-20T10:15:03.239Z,33.60
2018-08-20T10:17:31.787Z,33.50
2018-08-20T10:20:00.313Z,33.60
2018-08-20T10:22:28.913Z,33.60
2018-08-20T10:24:57.713Z,33.70
2018-08-20T10:27:26.235Z,33.80
2018-08-20T10:29:54.740Z,33.80
2018-08-20T10:32:23.291Z,33.80
2018-08-20T10:34:51.885Z,34.10
2018-08-20T10:37:20.375Z,34.20
2018-08-20T10:39:48.906Z,34.30
2018-08-20T10:42:17.410Z,34.40
2018-08-20T10:44:51.311Z,34.40
2018-08-20T10:47:19.930Z,34.60
2018-08-20T10:49:48.496Z,34.70
2018-08-20T10:52:17.049Z,34.80
2018-08-20T10:54:45.583Z,35.00
2018-08-20T10:57:14.115Z,35.00
2018-08-20T10:59:42.582Z,35.10
2018-08-20T11:02:11.242Z,34.80
2018-08-20T11:04:39.739Z,34.70
2018-08-20T11:07:08.389Z,34.60
2018-08-20T11:09:36.778Z,34.60
2018-08-20T11:12:05.311Z,34.60
2018-08-20T11:14:33.790Z,34.70
2018-08-20T11:17:03.063Z,34.80
2018-08-20T11:19:31.529Z,35.10
2018-08-20T11:22:00.123Z,35.20
2018-08-20T11:24:28.658Z,35.20
2018-08-20T11:26:57.265Z,34.90
2018-08-20T11:29:25.715Z,34.90
2018-08-20T11:31:54.244Z,34.90
2018-08-20T11:34:22.724Z,34.90
2018-08-20T11:36:51.204Z,35.10
2018-08-20T11:39:19.701Z,35.20
2018-08-20T11:41:48.248Z,35.40
2018-08-20T11:44:16.797Z,35.70
2018-08-20T11:46:45.326Z,36.00
2018-08-20T11:49:13.820Z,36.00
2018-08-20T11:51:42.263Z,36.10
2018-08-20T11:54:10.755Z,36.40
2018-08-20T11:56:39.239Z,36.30
2018-08-20T11:59:07.949Z,35.90
2018-08-20T12:01:36.295Z,35.90
2018-08-20T12:04:04.817Z,35.90
2018-08-20T12:06:33.286Z,35.90
2018-08-20T12:09:03.229Z,35.40
2018-08-20T12:11:31.685Z,35.00
2018-08-20T12:14:00.202Z,34.50
2018-08-20T12:16:28.726Z,34.10
2018-08-20T12:18:57.228Z,33.90
2018-08-20T12:21:25.668Z,33.70
2018-08-20T12:23:54.190Z,33.60
2018-08-20T12:26:22.664Z,33.40
2018-08-20T12:28:51.177Z,33.00
2018-08-20T12:31:19.637Z,32.80
2018-08-20T12:33:48.098Z,32.70
2018-08-20T12:36:16.544Z,32.60
2018-08-20T12:38:45.047Z,32.50
2018-08-20T12:41:13.499Z,32.40
2018-08-20T12:43:42.006Z,32.40
2018-08-20T12:46:10.507Z,32.30
2018-08-20T12:48:38.958Z,32.30
2018-08-20T12:51:07.606Z,32.30
2018-08-20T12:53:36.071Z,32.50
2018-08-20T12:56:04.570Z,32.60
2018-08-20T12:58:33.094Z,32.90
2018-08-20T13:01:04.131Z,33.00
2018-08-20T13:03:32.542Z,33.10
2018-08-20T13:06:02.918Z,33.10
2018-08-20T13:08:31.382Z,33.00
2018-08-20T13:10:59.886Z,32.80
2018-08-20T13:13:28.378Z,32.90
2018-08-20T13:15:56.996Z,33.00
2018-08-20T13:18:25.470Z,33.10
2018-08-20T13:20:53.936Z,33.30
2018-08-20T13:23:22.417Z,33.50
2018-08-20T13:25:50.938Z,33.70
2018-08-20T13:28:19.426Z,33.90
2018-08-20T13:30:47.954Z,33.90
2018-08-20T13:33:16.491Z,34.10
2018-08-20T13:35:44.991Z,34.30
2018-08-20T13:38:13.572Z,34.50
2018-08-20T13:40:42.182Z,34.60
2018-08-20T13:43:10.707Z,34.60
2018-08-20T13:45:39.237Z,34.40
2018-08-20T13:48:07.790Z,34.40
2018-08-20T13:50:36.282Z,34.50
2018-08-20T13:53:04.814Z,34.70
2018-08-20T13:55:33.295Z,34.80
2018-08-20T13:58:04.400Z,34.80
2018-08-20T14:00:32.854Z,34.80
2018-08-20T14:03:03.610Z,34.60
2018-08-20T14:05:32.094Z,34.50
2018-08-20T14:08:00.830Z,34.10
2018-08-20T14:10:29.446Z,34.00
2018-08-20T14:12:58.110Z,33.80
2018-08-20T14:15:26.715Z,33.80
2018-08-20T14:17:55.336Z,33.70
2018-08-20T14:20:23.930Z,33.80
2018-08-20T14:22:52.592Z,33.70
2018-08-20T14:25:21.270Z,33.70
2018-08-20T14:27:49.874Z,33.70
2018-08-20T14:30:18.332Z,33.50
2018-08-20T14:32:46.881Z,33.50
2018-08-20T14:35:15.349Z,33.40
2018-08-20T14:37:43.873Z,33.30
2018-08-20T14:40:15.018Z,33.20
2018-08-20T14:42:44.041Z,33.10
2018-08-20T14:45:14.072Z,32.90
2018-08-20T14:47:43.632Z,32.90
2018-08-20T14:50:14.343Z,32.90
2018-08-20T14:52:43.124Z,32.70
2018-08-20T14:55:12.195Z,32.60
2018-08-20T14:57:40.796Z,32.50
2018-08-20T15:00:11.669Z,32.40
2018-08-20T15:02:40.182Z,32.20
2018-08-20T15:05:09.402Z,32.20
2018-08-20T15:07:38.115Z,32.10
2018-08-20T15:10:07.799Z,32.00
2018-08-20T15:12:36.339Z,31.90
2018-08-20T15:15:05.541Z,31.70
2018-08-20T15:17:33.939Z,31.60
2018-08-20T15:20:03.655Z,31.60
2018-08-20T15:22:32.135Z,31.40
2018-08-20T15:25:00.663Z,31.30
2018-08-20T15:27:29.180Z,31.30
2018-08-20T15:29:57.700Z,31.10
2018-08-20T15:32:26.243Z,31.00
2018-08-20T15:34:54.785Z,31.00
2018-08-20T15:37:23.287Z,31.00
2018-08-20T15:39:51.819Z,31.00
2018-08-20T15:42:20.360Z,30.90
2018-08-20T15:44:48.831Z,30.90
2018-08-20T15:47:17.371Z,30.80
2018-08-20T15:49:45.841Z,30.80
2018-08-20T15:52:14.443Z,30.70
2018-08-20T15:54:42.931Z,30.70
2018-08-20T15:57:11.628Z,30.60
2018-08-20T15:59:40.173Z,30.50
2018-08-20T16:02:08.886Z,30.50
2018-08-20T16:04:37.426Z,30.40
2018-08-20T16:07:06.061Z,30.30
2018-08-20T16:09:34.532Z,30.20
2018-08-20T16:12:05.726Z,30.10
2018-08-20T16:14:34.191Z,30.10
2018-08-20T16:17:03.519Z,30.00
2018-08-20T16:19:31.973Z,29.80
2018-08-20T16:22:00.758Z,29.60
2018-08-20T16:24:29.270Z,29.50
2018-08-20T16:26:57.870Z,29.40
2018-08-20T16:29:26.380Z,29.20
2018-08-20T16:31:54.962Z,29.10
2018-08-20T16:34:23.487Z,29.10
2018-08-20T16:36:51.999Z,29.10
2018-08-20T16:39:20.615Z,29.00
2018-08-20T16:41:49.046Z,29.00
2018-08-20T16:44:17.612Z,28.90
2018-08-20T16:46:46.109Z,28.70
2018-08-20T16:49:14.610Z,28.60
2018-08-20T16:51:43.127Z,28.50
2018-08-20T16:54:11.639Z,28.40
2018-08-20T16:56:40.147Z,28.30
2018-08-20T16:59:09.203Z,28.20
2018-08-20T17:01:37.708Z,28.20
2018-08-20T17:04:16.622Z,28.10
2018-08-20T17:06:49.609Z,28.10
2018-08-20T17:09:18.172Z,28.00
2018-08-20T17:11:46.782Z,27.90
2018-08-20T17:14:15.379Z,27.80
2018-08-20T17:16:43.939Z,27.70
2018-08-20T17:19:12.555Z,27.70
2018-08-20T17:21:41.076Z,27.60
2018-08-20T17:24:09.747Z,27.60
2018-08-20T17:26:38.279Z,27.50
2018-08-20T17:29:11.444Z,27.40
2018-08-20T17:31:40.258Z,27.40
2018-08-20T17:34:09.013Z,27.40
2018-08-20T17:36:39.238Z,27.30
2018-08-20T17:39:09.083Z,27.30
2018-08-20T17:41:38.027Z,27.20
2018-08-20T17:44:06.771Z,27.20
2018-08-20T17:46:35.537Z,27.10
2018-08-20T17:49:10.856Z,27.10
2018-08-20T17:51:39.668Z,27.00
2018-08-20T17:54:08.275Z,27.00
2018-08-20T17:56:37.059Z,26.90
2018-08-20T17:59:11.812Z,26.80
2018-08-20T18:01:40.456Z,26.80
2018-08-20T18:04:09.685Z,26.80
2018-08-20T18:06:48.709Z,26.70
2018-08-20T18:09:17.470Z,26.60
2018-08-20T18:11:50.314Z,26.50
2018-08-20T18:14:20.527Z,26.50
2018-08-20T18:16:49.063Z,26.40
2018-08-20T18:19:17.768Z,26.40
2018-08-20T18:21:46.443Z,26.30
2018-08-20T18:24:19.032Z,26.30
2018-08-20T18:26:52.245Z,26.20
2018-08-20T18:29:20.800Z,26.30
2018-08-20T18:31:56.427Z,26.30
2018-08-20T18:34:24.954Z,26.30
2018-08-20T18:36:53.564Z,26.20
2018-08-20T18:39:22.151Z,26.20
2018-08-20T18:41:56.850Z,26.20
2018-08-20T18:44:25.376Z,26.10
2018-08-20T18:46:54.337Z,26.10
2018-08-20T18:49:23.470Z,26.10
2018-08-20T18:52:01.567Z,26.00
2018-08-20T18:54:39.574Z,26.00
2018-08-20T18:57:08.158Z,25.90
2018-08-20T18:59:39.821Z,25.80
2018-08-20T19:02:11.129Z,25.80
2018-08-20T19:04:46.927Z,25.70
2018-08-20T19:07:15.620Z,25.60
2018-08-20T19:09:48.352Z,25.60
2018-08-20T19:12:16.969Z,25.60
2018-08-20T19:14:45.602Z,25.60
2018-08-20T19:17:28.758Z,25.40
2018-08-20T19:20:06.237Z,25.40
2018-08-20T19:22:34.775Z,25.40
2018-08-20T19:25:03.604Z,25.30
2018-08-20T19:27:32.608Z,25.30
2018-08-20T19:30:21.217Z,25.20
2018-08-20T19:32:49.867Z,25.20
2018-08-20T19:35:19.534Z,25.20
2018-08-20T19:37:48.940Z,25.10
2018-08-20T19:40:17.615Z,25.10
2018-08-20T19:42:46.086Z,25.10
2018-08-20T19:45:14.697Z,25.00
2018-08-20T19:47:43.195Z,25.00
2018-08-20T19:50:12.838Z,25.00
2018-08-20T19:52:41.320Z,24.90
2018-08-20T19:55:11.737Z,24.90
2018-08-20T19:57:40.240Z,24.80
2018-08-20T20:00:11.510Z,24.80
2018-08-20T20:02:41.930Z,24.80
2018-08-20T20:05:14.165Z,24.70
2018-08-20T20:07:51.886Z,24.70
2018-08-20T20:10:20.431Z,24.70
2018-08-20T20:12:52.846Z,24.70
2018-08-20T20:15:21.857Z,24.60
2018-08-20T20:17:50.619Z,24.60
2018-08-20T20:20:19.096Z,24.60
2018-08-20T20:22:47.614Z,24.50
2018-08-20T20:25:16.114Z,24.40
2018-08-20T20:27:44.757Z,24.40
2018-08-20T20:30:13.302Z,24.30
2018-08-20T20:32:41.936Z,24.30
2018-08-20T20:35:11.134Z,24.30
2018-08-20T20:37:39.679Z,24.30
2018-08-20T20:40:08.500Z,24.20
2018-08-20T20:42:37.040Z,24.20
2018-08-20T20:45:05.592Z,24.20
2018-08-20T20:47:34.314Z,24.10
2018-08-20T20:50:02.812Z,24.10
2018-08-20T20:52:31.363Z,24.00
2018-08-20T20:54:59.854Z,24.10
2018-08-20T20:57:28.371Z,24.00
2018-08-20T20:59:56.929Z,24.00
2018-08-20T21:02:25.436Z,24.00
2018-08-20T21:04:57.488Z,23.90
2018-08-20T21:07:31.114Z,23.90
2018-08-20T21:09:59.780Z,23.80
2018-08-20T21:12:28.326Z,23.80
2018-08-20T21:14:56.884Z,23.80
2018-08-20T21:17:25.400Z,23.80
2018-08-20T21:19:54.002Z,23.80
2018-08-20T21:22:22.505Z,23.80
2018-08-20T21:24:51.115Z,23.80
2018-08-20T21:27:24.731Z,23.70
2018-08-20T21:29:56.769Z,23.70
2018-08-20T21:32:25.303Z,23.70
2018-08-20T21:34:53.978Z,23.70
2018-08-20T21:37:22.483Z,23.60
2018-08-20T21:39:51.046Z,23.60
2018-08-20T21:42:28.133Z,23.60
2018-08-20T21:44:57.775Z,23.60
2018-08-20T21:47:27.991Z,23.60
2018-08-20T21:49:56.556Z,23.60
2018-08-20T21:52:25.173Z,23.50
2018-08-20T21:54:53.715Z,23.50
2018-08-20T21:57:22.280Z,23.50
2018-08-20T22:00:01.893Z,23.50
2018-08-20T22:02:37.265Z,23.40
2018-08-20T22:05:06.039Z,23.40
2018-08-20T22:07:36.619Z,23.40
2018-08-20T22:10:05.753Z,23.40
2018-08-20T22:12:34.227Z,23.40
2018-08-20T22:15:04.801Z,23.40
2018-08-20T22:17:33.339Z,23.40
2018-08-20T22:20:07.083Z,23.40
2018-08-20T22:22:35.608Z,23.40
2018-08-20T22:25:11.502Z,23.30
2018-08-20T22:27:45.326Z,23.30
2018-08-20T22:30:13.943Z,23.30
2018-08-20T22:32:42.697Z,23.30
2018-08-20T22:35:16.703Z,23.30
2018-08-20T22:37:45.506Z,23.30
2018-08-20T22:42:57.059Z,23.20
2018-08-20T22:45:25.539Z,23.20
2018-08-20T22:47:54.095Z,23.20
2018-08-20T22:50:22.627Z,23.10
2018-08-20T22:52:52.079Z,23.10
2018-08-20T22:55:21.854Z,23.10
2018-08-20T22:58:09.659Z,23.10
2018-08-20T23:00:38.356Z,23.10
2018-08-20T23:03:06.886Z,23.00
2018-08-20T23:05:35.402Z,23.00
2018-08-20T23:08:17.167Z,23.00
2018-08-20T23:10:45.773Z,23.00
2018-08-20T23:13:14.286Z,23.00
2018-08-20T23:15:42.847Z,22.90
2018-08-20T23:18:11.401Z,22.90
2018-08-20T23:20:39.964Z,22.90
2018-08-20T23:23:08.486Z,22.90
2018-08-20T23:25:37.000Z,22.90
2018-08-20T23:28:05.554Z,22.90
2018-08-20T23:30:34.730Z,22.90
2018-08-20T23:33:03.315Z,22.90
2018-08-20T23:35:31.859Z,22.90
2018-08-20T23:38:00.354Z,22.90
2018-08-20T23:40:28.900Z,22.90
2018-08-20T23:42:57.414Z,22.90
2018-08-20T23:45:25.910Z,22.80
2018-08-20T23:47:54.465Z,22.80
2018-08-20T23:50:23.004Z,22.80
2018-08-20T23:52:51.546Z,22.70
2018-08-20T23:55:20.094Z,22.70
2018-08-20T23:57:48.638Z,22.70
